createdAt,value
2018-03-28T00:02:42.452Z,20.40
2018-03-28T00:05:46.586Z,21.73
2018-03-28T00:08:50.051Z,22.73
2018-03-28T00:11:53.436Z,24.50
2018-03-28T00:14:56.780Z,23.80
2018-03-28T00:18:00.180Z,24.43
2018-03-28T00:21:03.541Z,22.67
2018-03-28T00:24:08.433Z,23.57
2018-03-28T00:27:11.797Z,28.77
2018-03-28T00:30:15.933Z,28.20
2018-03-28T00:33:19.291Z,27.23
2018-03-28T00:36:22.656Z,25.77
2018-03-28T00:39:26.022Z,22.10
2018-03-28T00:42:30.214Z,24.23
2018-03-28T00:45:34.430Z,24.60
2018-03-28T00:48:37.790Z,24.00
2018-03-28T00:51:41.136Z,20.93
2018-03-28T00:54:44.505Z,22.37
2018-03-28T00:57:47.863Z,20.87
2018-03-28T01:00:51.232Z,22.90
2018-03-28T01:03:55.487Z,22.70
2018-03-28T01:06:58.805Z,22.43
2018-03-28T01:10:02.326Z,23.17
2018-03-28T01:13:05.687Z,26.23
2018-03-28T01:16:09.151Z,23.03
2018-03-28T01:19:12.519Z,23.43
2018-03-28T01:22:15.873Z,21.37
2018-03-28T01:25:19.300Z,21.23
2018-03-28T01:28:22.700Z,22.33
2018-03-28T01:31:26.055Z,20.23
2018-03-28T01:34:30.159Z,21.43
2018-03-28T01:37:33.500Z,20.10
2018-03-28T01:40:36.863Z,20.30
2018-03-28T01:43:40.221Z,19.93
2018-03-28T01:46:43.581Z,19.93
2018-03-28T01:49:47.711Z,22.00
2018-03-28T01:52:51.048Z,22.93
2018-03-28T01:55:54.612Z,19.27
2018-03-28T01:58:57.962Z,19.67
2018-03-28T02:02:02.235Z,19.13
2018-03-28T02:05:05.574Z,18.00
2018-03-28T02:08:08.931Z,16.30
2018-03-28T02:11:12.310Z,15.53
2018-03-28T02:14:16.427Z,15.97
2018-03-28T02:17:20.548Z,15.70
2018-03-28T02:20:24.657Z,15.17
2018-03-28T02:23:28.781Z,13.90
2018-03-28T02:26:32.901Z,15.10
2018-03-28T02:29:36.281Z,15.00
2018-03-28T02:32:40.414Z,14.13
2018-03-28T02:35:43.782Z,14.50
2018-03-28T02:38:47.897Z,14.00
2018-03-28T02:41:51.251Z,13.97
2018-03-28T02:44:54.620Z,13.60
2018-03-28T02:47:57.990Z,12.73
2018-03-28T02:51:01.337Z,13.23
2018-03-28T02:54:04.695Z,13.00
2018-03-28T02:57:08.143Z,13.53
2018-03-28T03:00:11.490Z,12.20
2018-03-28T03:03:15.696Z,12.77
2018-03-28T03:06:20.582Z,14.23
2018-03-28T03:09:23.942Z,15.57
2018-03-28T03:12:28.117Z,14.30
2018-03-28T03:15:31.473Z,13.20
2018-03-28T03:18:35.593Z,13.70
2018-03-28T03:21:39.810Z,13.23
2018-03-28T03:24:44.126Z,12.70
2018-03-28T03:27:47.480Z,14.37
2018-03-28T03:30:50.833Z,15.60
2018-03-28T03:33:54.948Z,14.37
2018-03-28T03:36:59.068Z,14.90
2018-03-28T03:40:03.208Z,15.57
2018-03-28T03:43:06.577Z,16.10
2018-03-28T03:46:10.716Z,16.63
2018-03-28T03:49:14.069Z,15.40
2018-03-28T03:52:17.434Z,14.63
2018-03-28T03:55:20.811Z,14.43
2018-03-28T03:58:24.923Z,15.53
2018-03-28T04:01:29.049Z,16.23
2018-03-28T04:04:32.442Z,15.43
2018-03-28T04:07:35.791Z,16.33
2018-03-28T04:10:39.159Z,17.00
2018-03-28T04:13:42.504Z,15.90
2018-03-28T04:16:47.365Z,16.20
2018-03-28T04:19:51.507Z,17.67
2018-03-28T04:22:54.916Z,15.60
2018-03-28T04:25:58.558Z,14.90
2018-03-28T04:29:03.503Z,15.37
2018-03-28T04:32:08.383Z,16.90
2018-03-28T04:35:11.737Z,14.30
2018-03-28T04:38:15.086Z,15.40
2018-03-28T04:41:18.433Z,15.07
2018-03-28T04:44:21.817Z,12.77
2018-03-28T04:47:25.173Z,12.77
2018-03-28T04:50:28.517Z,14.80
2018-03-28T04:53:33.383Z,13.20
2018-03-28T04:56:37.603Z,14.27
2018-03-28T04:59:41.727Z,13.43
2018-03-28T05:02:45.083Z,14.87
2018-03-28T05:05:49.242Z,14.97
2018-03-28T05:08:53.386Z,17.00
2018-03-28T05:11:56.748Z,16.33
2018-03-28T05:15:00.874Z,14.57
2018-03-28T05:18:04.287Z,16.23
2018-03-28T05:21:07.643Z,15.50
2018-03-28T05:24:11.767Z,17.43
2018-03-28T05:27:15.921Z,16.93
2018-03-28T05:30:19.291Z,17.57
2018-03-28T05:33:23.409Z,17.10
2018-03-28T05:36:27.534Z,16.90
2018-03-28T05:39:31.656Z,16.93
2018-03-28T05:42:35.009Z,17.47
2018-03-28T05:45:38.462Z,15.83
2018-03-28T05:48:41.833Z,15.57
2018-03-28T05:51:45.211Z,15.60
2018-03-28T05:54:49.320Z,15.57
2018-03-28T05:57:52.677Z,14.77
2018-03-28T06:00:56.070Z,15.37
2018-03-28T06:04:00.193Z,17.97
2018-03-28T06:07:03.542Z,17.50
2018-03-28T06:10:08.434Z,18.60
2018-03-28T06:13:11.808Z,16.27
2018-03-28T06:16:15.953Z,16.83
2018-03-28T06:19:19.330Z,17.27
2018-03-28T06:22:23.457Z,17.87
2018-03-28T06:25:26.955Z,19.30
2018-03-28T06:28:30.312Z,19.33
2018-03-28T06:31:33.683Z,17.47
2018-03-28T06:34:37.051Z,18.80
2018-03-28T06:37:40.416Z,18.63
2018-03-28T06:40:45.302Z,19.70
2018-03-28T06:43:48.766Z,20.83
2018-03-28T06:46:52.959Z,19.80
2018-03-28T06:49:57.099Z,22.20
2018-03-28T06:53:00.444Z,19.20
2018-03-28T06:56:03.814Z,20.23
2018-03-28T06:59:07.195Z,18.37
2018-03-28T07:02:10.556Z,18.63
2018-03-28T07:05:13.897Z,19.00
2018-03-28T07:08:18.015Z,17.37
2018-03-28T07:11:22.252Z,17.73
2018-03-28T07:14:25.630Z,18.37
2018-03-28T07:17:29.768Z,15.23
2018-03-28T07:20:33.193Z,16.40
2018-03-28T07:23:36.648Z,15.47
2018-03-28T07:26:40.778Z,18.10
2018-03-28T07:29:44.902Z,16.23
2018-03-28T07:32:48.323Z,17.37
2018-03-28T07:35:51.754Z,18.40
2018-03-28T07:38:55.104Z,17.80
2018-03-28T07:41:58.443Z,13.67
2018-03-28T07:45:01.821Z,16.97
2018-03-28T07:48:05.184Z,16.73
2018-03-28T07:51:09.337Z,18.27
2018-03-28T07:54:12.701Z,16.90
2018-03-28T07:57:16.845Z,16.50
2018-03-28T08:00:20.231Z,17.27
2018-03-28T08:03:23.594Z,18.23
2018-03-28T08:06:28.456Z,18.23
2018-03-28T08:09:32.762Z,17.70
2018-03-28T08:12:36.098Z,18.63
2018-03-28T08:15:39.481Z,17.03
2018-03-28T08:18:43.610Z,16.17
2018-03-28T08:21:47.124Z,15.87
2018-03-28T08:24:50.486Z,14.97
2018-03-28T08:27:54.632Z,17.37
2018-03-28T08:30:57.980Z,15.00
2018-03-28T08:34:02.126Z,16.83
2018-03-28T08:37:06.255Z,16.17
2018-03-28T08:40:09.581Z,15.30
2018-03-28T08:43:12.942Z,15.03
2018-03-28T08:46:17.070Z,15.17
2018-03-28T08:49:20.474Z,15.23
2018-03-28T08:52:23.836Z,15.33
2018-03-28T08:55:27.205Z,14.43
2018-03-28T08:58:30.586Z,14.60
2018-03-28T09:01:33.939Z,14.90
2018-03-28T09:04:37.311Z,14.67
2018-03-28T09:07:40.671Z,13.27
2018-03-28T09:10:44.043Z,15.10
2018-03-28T09:13:48.209Z,13.77
2018-03-28T09:16:51.582Z,13.27
2018-03-28T09:19:54.936Z,20.43
2018-03-28T09:22:59.090Z,13.97
2018-03-28T09:26:02.478Z,14.63
2018-03-28T09:29:06.911Z,14.73
2018-03-28T09:32:10.358Z,14.90
2018-03-28T09:35:13.817Z,14.43
2018-03-28T09:38:17.172Z,14.80
2018-03-28T09:41:20.524Z,13.93
2018-03-28T09:44:23.902Z,15.13
2018-03-28T09:47:28.059Z,14.73
2018-03-28T09:50:31.431Z,15.67
2018-03-28T09:53:34.805Z,13.97
2018-03-28T09:56:38.179Z,14.40
2018-03-28T09:59:42.346Z,15.47
2018-03-28T10:02:45.723Z,14.90
2018-03-28T10:05:49.842Z,14.80
2018-03-28T10:08:54.079Z,14.93
2018-03-28T10:11:57.438Z,13.87
2018-03-28T10:15:01.568Z,14.77
2018-03-28T10:18:05.020Z,16.27
2018-03-28T10:21:08.388Z,14.30
2018-03-28T10:24:12.720Z,14.83
2018-03-28T10:27:16.079Z,14.40
2018-03-28T10:30:20.209Z,14.17
2018-03-28T10:33:24.348Z,14.80
2018-03-28T10:36:27.730Z,16.03
2018-03-28T10:39:31.847Z,15.07
2018-03-28T10:42:35.970Z,15.00
2018-03-28T10:45:40.112Z,15.17
2018-03-28T10:48:43.485Z,15.60
2018-03-28T10:51:47.600Z,14.33
2018-03-28T10:54:51.734Z,14.43
2018-03-28T10:57:55.086Z,15.23
2018-03-28T11:00:59.227Z,15.03
2018-03-28T11:04:03.372Z,15.00
2018-03-28T11:07:06.734Z,15.17
2018-03-28T11:10:11.594Z,15.50
2018-03-28T11:13:14.962Z,15.87
2018-03-28T11:16:18.392Z,15.93
2018-03-28T11:19:21.766Z,15.30
2018-03-28T11:22:25.135Z,14.60
2018-03-28T11:25:29.571Z,14.00
2018-03-28T11:38:23.020Z,14.63
2018-03-28T11:41:26.413Z,17.37
2018-03-28T11:44:29.796Z,17.03
2018-03-28T11:47:33.160Z,18.57
2018-03-28T11:50:36.529Z,17.10
2018-03-28T11:53:40.654Z,18.70
2018-03-28T11:56:44.806Z,18.07
2018-03-28T11:59:48.196Z,18.00
2018-03-28T12:02:51.578Z,18.43
2018-03-28T12:05:55.097Z,17.03
2018-03-28T12:08:58.480Z,18.97
2018-03-28T12:12:01.939Z,17.13
2018-03-28T12:15:05.306Z,18.70
2018-03-28T12:18:08.675Z,17.90
2018-03-28T12:21:12.809Z,18.00
2018-03-28T12:24:16.220Z,18.37
2018-03-28T12:27:19.682Z,17.10
2018-03-28T12:30:23.828Z,18.07
2018-03-28T12:33:27.242Z,18.30
2018-03-28T12:36:30.702Z,19.00
2018-03-28T12:39:34.854Z,19.53
2018-03-28T12:42:38.230Z,18.50
2018-03-28T12:45:42.381Z,20.03
2018-03-28T12:48:45.785Z,20.47
2018-03-28T12:51:49.185Z,20.77
2018-03-28T12:54:52.668Z,21.47
2018-03-28T12:57:56.032Z,20.50
2018-03-28T13:01:00.305Z,20.73
2018-03-28T13:04:03.686Z,20.97
2018-03-28T13:07:07.234Z,21.57
2018-03-28T13:10:10.889Z,20.10
2018-03-28T13:13:14.278Z,22.23
2018-03-28T13:16:17.671Z,21.97
2018-03-28T13:19:21.796Z,22.93
2018-03-28T13:22:25.408Z,21.03
2018-03-28T13:25:28.871Z,21.47
2018-03-28T13:28:32.251Z,22.43
2018-03-28T13:31:35.632Z,21.63
2018-03-28T13:34:38.972Z,20.43
2018-03-28T13:37:42.723Z,21.47
2018-03-28T13:40:46.097Z,20.87
2018-03-28T13:43:50.207Z,20.63
2018-03-28T13:46:54.432Z,19.73
2018-03-28T13:49:58.583Z,18.73
2018-03-28T13:53:01.957Z,19.10
2018-03-28T13:56:05.323Z,20.13
2018-03-28T13:59:09.012Z,19.53
2018-03-28T14:02:12.411Z,18.40
2018-03-28T14:05:15.766Z,20.03
2018-03-28T14:08:19.197Z,19.63
2018-03-28T14:11:22.571Z,19.20
2018-03-28T14:14:26.074Z,20.87
2018-03-28T14:17:29.533Z,20.67
2018-03-28T14:20:32.993Z,20.77
2018-03-28T14:23:36.361Z,20.40
2018-03-28T14:26:39.766Z,20.33
2018-03-28T14:29:43.142Z,21.33
2018-03-28T14:32:47.507Z,20.50
2018-03-28T14:35:50.998Z,21.33
2018-03-28T14:38:54.412Z,22.57
2018-03-28T14:41:58.763Z,20.60
2018-03-28T14:45:02.137Z,20.13
2018-03-28T14:48:05.506Z,20.27
2018-03-28T14:51:08.890Z,19.23
2018-03-28T14:54:13.023Z,19.97
2018-03-28T14:57:16.421Z,21.50
2018-03-28T15:00:20.772Z,19.03
2018-03-28T15:03:24.124Z,20.20
2018-03-28T15:06:27.494Z,19.93
2018-03-28T15:09:31.629Z,23.30
2018-03-28T15:12:35.102Z,22.60
2018-03-28T15:15:38.502Z,19.93
2018-03-28T15:18:41.857Z,22.57
2018-03-28T15:21:45.224Z,21.00
2018-03-28T15:24:49.359Z,20.03
2018-03-28T15:27:53.665Z,20.73
2018-03-28T15:30:57.083Z,19.27
2018-03-28T15:34:01.267Z,19.00
2018-03-28T15:37:04.739Z,19.07
2018-03-28T15:40:08.142Z,18.20
2018-03-28T15:43:11.501Z,19.63
2018-03-28T15:46:15.667Z,18.27
2018-03-28T15:49:19.048Z,19.07
2018-03-28T15:52:22.500Z,16.83
2018-03-28T15:55:27.676Z,18.00
2018-03-28T15:58:31.129Z,19.43
2018-03-28T16:01:36.223Z,19.80
2018-03-28T16:04:39.605Z,21.10
2018-03-28T16:07:43.934Z,19.70
2018-03-28T16:10:47.353Z,18.13
2018-03-28T16:13:50.814Z,19.27
2018-03-28T16:16:55.034Z,18.00
2018-03-28T16:19:59.206Z,19.00
2018-03-28T16:23:02.586Z,19.67
2018-03-28T16:26:06.004Z,19.17
2018-03-28T16:29:09.449Z,18.77
2018-03-28T16:32:13.603Z,17.30
2018-03-28T16:35:17.010Z,19.43
2018-03-28T16:38:20.377Z,19.40
2018-03-28T16:41:24.589Z,20.00
2018-03-28T16:44:28.039Z,18.73
2018-03-28T16:47:31.612Z,17.57
2018-03-28T16:50:35.147Z,19.20
2018-03-28T16:53:38.525Z,20.10
2018-03-28T16:56:41.890Z,18.43
2018-03-28T16:59:46.032Z,17.00
2018-03-28T17:02:49.435Z,18.33
2018-03-28T17:05:52.831Z,18.13
2018-03-28T17:08:56.204Z,18.20
2018-03-28T17:12:00.439Z,18.30
2018-03-28T17:15:04.557Z,17.27
2018-03-28T17:18:08.734Z,19.07
2018-03-28T17:21:12.305Z,19.47
2018-03-28T17:24:15.679Z,20.03
2018-03-28T17:27:20.113Z,19.40
2018-03-28T17:30:23.508Z,18.67
2018-03-28T17:33:26.871Z,16.27
2018-03-28T17:36:31.147Z,18.73
2018-03-28T17:39:34.543Z,17.47
2018-03-28T17:42:37.933Z,18.87
2018-03-28T17:45:41.377Z,18.40
2018-03-28T17:48:44.823Z,19.47
2018-03-28T17:51:48.958Z,18.00
2018-03-28T17:54:52.342Z,18.37
2018-03-28T17:57:56.537Z,18.67
2018-03-28T18:00:59.912Z,21.03
2018-03-28T18:04:03.312Z,18.73
2018-03-28T18:07:06.703Z,19.90
2018-03-28T18:10:10.079Z,19.07
2018-03-28T18:13:13.457Z,17.27
2018-03-28T18:16:17.014Z,17.50
2018-03-28T18:19:20.380Z,19.90
2018-03-28T18:22:23.776Z,18.17
2018-03-28T18:25:27.171Z,20.57
2018-03-28T18:28:30.556Z,19.00
2018-03-28T18:31:34.689Z,17.10
2018-03-28T18:34:38.100Z,16.57
2018-03-28T18:37:41.553Z,20.20
2018-03-28T18:40:44.959Z,17.97
2018-03-28T18:43:49.107Z,19.43
2018-03-28T18:46:52.506Z,19.50
2018-03-28T18:49:55.922Z,18.83
2018-03-28T18:52:59.446Z,16.27
2018-03-28T18:56:02.859Z,19.90
2018-03-28T18:59:06.245Z,17.93
2018-03-28T19:02:09.979Z,19.27
2018-03-28T19:05:13.365Z,19.03
2018-03-28T19:08:17.719Z,19.57
2018-03-28T19:11:22.078Z,18.17
2018-03-28T19:14:25.469Z,19.53
2018-03-28T19:17:29.880Z,21.70
2018-03-28T19:20:33.399Z,21.10
2018-03-28T19:23:36.822Z,20.03
2018-03-28T19:26:40.271Z,18.80
2018-03-28T19:29:43.738Z,20.57
2018-03-28T19:32:48.673Z,21.73
2018-03-28T19:35:52.998Z,18.20
2018-03-28T19:38:56.410Z,18.30
2018-03-28T19:42:00.593Z,19.63
2018-03-28T19:45:04.345Z,20.03
2018-03-28T19:48:08.670Z,20.57
2018-03-28T19:51:12.390Z,24.03
2018-03-28T19:54:15.966Z,21.40
2018-03-28T19:57:19.394Z,22.57
2018-03-28T20:00:22.902Z,25.37
2018-03-28T20:03:26.415Z,23.90
2018-03-28T20:06:29.840Z,22.60
2018-03-28T20:09:33.344Z,29.20
2018-03-28T20:12:36.730Z,26.90
2018-03-28T20:15:40.142Z,27.83
2018-03-28T20:18:43.543Z,27.00
2018-03-28T20:21:46.921Z,25.03
2018-03-28T20:24:50.302Z,27.87
2018-03-28T20:27:53.671Z,27.63
2018-03-28T20:30:57.051Z,29.00
2018-03-28T20:34:01.222Z,27.77
2018-03-28T20:37:04.715Z,32.43
2018-03-28T20:40:08.097Z,32.00
2018-03-28T20:43:12.463Z,36.10
2018-03-28T20:46:16.242Z,31.37
2018-03-28T20:49:20.093Z,33.10
2018-03-28T20:52:23.618Z,34.67
2018-03-28T20:55:27.094Z,37.10
2018-03-28T20:58:30.470Z,38.77
2018-03-28T21:01:33.878Z,37.03
2018-03-28T21:04:37.265Z,37.27
2018-03-28T21:07:44.642Z,37.20
2018-03-28T21:10:48.782Z,35.27
2018-03-28T21:13:52.136Z,40.10
2018-03-28T21:16:56.275Z,39.07
2018-03-28T21:20:00.408Z,43.23
2018-03-28T21:23:03.777Z,40.30
2018-03-28T21:26:07.966Z,37.90
2018-03-28T21:29:11.332Z,42.17
2018-03-28T21:32:14.694Z,39.17
2018-03-28T21:35:18.836Z,39.93
2018-03-28T21:38:22.238Z,40.00
2018-03-28T21:41:25.613Z,42.27
2018-03-28T21:44:29.768Z,40.20
2018-03-28T21:47:33.114Z,42.73
2018-03-28T21:50:37.245Z,43.07
2018-03-28T21:53:41.346Z,44.67
2018-03-28T21:56:45.568Z,42.07
2018-03-28T21:59:48.915Z,43.07
2018-03-28T22:02:52.286Z,40.80
2018-03-28T22:05:56.406Z,41.37
2018-03-28T22:08:59.853Z,41.30
2018-03-28T22:12:03.293Z,40.87
2018-03-28T22:15:07.602Z,45.73
2018-03-28T22:18:10.968Z,43.80
2018-03-28T22:21:14.330Z,42.00
2018-03-28T22:24:17.694Z,45.30
2018-03-28T22:27:21.051Z,39.17
2018-03-28T22:30:24.445Z,40.33
2018-03-28T22:33:27.792Z,39.20
2018-03-28T22:36:31.134Z,41.07
2018-03-28T22:39:34.501Z,38.03
2018-03-28T22:42:38.612Z,41.57
2018-03-28T22:45:42.731Z,38.20
2018-03-28T22:48:46.859Z,38.13
2018-03-28T22:51:51.096Z,39.80
2018-03-28T22:54:54.495Z,36.47
2018-03-28T22:57:57.871Z,35.00
2018-03-28T23:01:02.025Z,32.90
2018-03-28T23:04:05.394Z,36.70
2018-03-28T23:07:09.509Z,32.80
2018-03-28T23:10:13.813Z,30.90
2018-03-28T23:13:18.678Z,33.87
2018-03-28T23:16:22.042Z,30.63
2018-03-28T23:19:25.531Z,31.63
2018-03-28T23:22:40.645Z,27.57
2018-03-28T23:25:44.782Z,31.20
2018-03-28T23:28:48.141Z,27.87
2018-03-28T23:31:51.496Z,29.00
2018-03-28T23:34:54.862Z,30.90
2018-03-28T23:37:58.979Z,28.73
2018-03-28T23:41:03.106Z,26.83
2018-03-28T23:44:06.456Z,27.77
2018-03-28T23:47:09.813Z,28.30
2018-03-28T23:50:13.173Z,29.60
2018-03-28T23:53:17.304Z,36.17
2018-03-28T23:56:21.440Z,29.13
2018-03-28T23:59:24.930Z,32.60
